Palm Coast — WDC9152 — position and weather

sailwx.info

Track history (hours):
 
Tides and Currents Weather Stations Pressure Air Temp Water Temp Dewpoint Dewpoint Depression Visibility Wind Speed Wind Dir Waves Ship Positions

Palm Coast

Owner: Dann Marine Towing, LC, Chesapeake City, MD. More information available from US FCC via Universal Licensing System and Coast Guard Vessel Documentation Center.

Last reported at 2017-Dec-15 08:00 UTC. Time now 2017-Dec-15 08:26 UTC.
Position N 39°15' W 076°34'.

; draft 3 m.

Type: Tug. MMSI: 367098270.

Date/timePositionNaut miles runAvg speedWind from/ knotsBaromVisibWave heightAir tempDewpointWater temp
2017-Dec-15 08:00N 39°15' W 076°34'0 0.0
2017-Dec-15 07:30N 39°15' W 076°34'0 0.0
2017-Dec-15 07:00N 39°15' W 076°34'0 0.0
2017-Dec-15 06:30N 39°15' W 076°34'0 0.0
2017-Dec-15 06:00N 39°15' W 076°34'0 0.0
2017-Dec-15 05:30N 39°15' W 076°34'0 0.0
2017-Dec-15 05:00N 39°15' W 076°34'0 0.0
2017-Dec-15 04:30N 39°15' W 076°34'0 0.0
2017-Dec-15 04:00N 39°15' W 076°34'0 0.0
2017-Dec-15 02:30N 39°15' W 076°34'0 0.0
2017-Dec-15 01:00N 39°15' W 076°34'0 0.0
2017-Dec-15 00:30N 39°15' W 076°34'0 0.0
2017-Dec-14 18:29N 39°15' W 076°34'0 0.0
2017-Dec-14 18:00N 39°15' W 076°34'0 0.0
2017-Dec-14 17:30N 39°15' W 076°34'0 0.0
2017-Dec-14 17:00N 39°15' W 076°34'0 0.0
2017-Dec-14 16:30N 39°15' W 076°34'0 0.0
2017-Dec-14 16:00N 39°15' W 076°34'5 5.0
2017-Dec-14 15:00N 39°12' W 076°29'4 7.1
2017-Dec-14 14:29N 39°12' W 076°25'6 8.3
2017-Dec-14 13:45N 39°15' W 076°18'3 8.7
2017-Dec-14 13:25N 39°17' W 076°15'3 8.6
2017-Dec-14 13:00N 39°19' W 076°12'4 8.3
2017-Dec-14 12:30N 39°22' W 076°08'4 8.0
2017-Dec-14 12:00N 39°24' W 076°03'4 7.7
2017-Dec-14 11:30N 39°27' W 075°60'4 7.5
2017-Dec-14 11:00N 39°29' W 075°57'4 7.1
2017-Dec-14 10:30N 39°31' W 075°53'3 6.1
2017-Dec-14 10:00N 39°32' W 075°49'3 6.2
2017-Dec-14 09:30N 39°32' W 075°45'3 6.2
2017-Dec-14 09:00N 39°33' W 075°41'3 6.0
2017-Dec-14 08:30N 39°33' W 075°37'3 6.2
2017-Dec-14 08:00N 39°34' W 075°33'4 8.7
2017-Dec-14 07:30N 39°38' W 075°34'5 9.9
2017-Dec-14 07:00N 39°42' W 075°31'510.2
2017-Dec-14 06:30N 39°47' W 075°28'5 9.9
2017-Dec-14 06:00N 39°50' W 075°22'5 9.3
2017-Dec-14 05:31N 39°51' W 075°17'4 8.9
2017-Dec-14 05:00N 39°53' W 075°11'3 6.8
2017-Dec-14 04:30N 39°55' W 075°08'3 6.7
2017-Dec-14 04:01N 39°58' W 075°07'3 6.5
2017-Dec-14 03:31N 40°00' W 075°03'3 6.7
2017-Dec-14 03:00N 40°02' W 074°60'3 6.9
2017-Dec-14 02:30N 40°04' W 074°56'3 5.6
2017-Dec-14 02:00N 40°05' W 074°52'0 0.0
2017-Dec-14 01:20N 40°05' W 074°52'0 0.0
2017-Dec-14 00:56N 40°05' W 074°52'0 0.0
2017-Dec-13 23:56N 40°05' W 074°52'0 0.0
2017-Dec-13 23:16N 40°05' W 074°52'0 0.0
2017-Dec-13 21:50N 40°05' W 074°52'0 0.0
2017-Dec-13 21:29N 40°05' W 074°52'0 0.0
2017-Dec-13 20:49N 40°05' W 074°52'0 0.0
2017-Dec-13 20:23N 40°05' W 074°52'0 0.0
2017-Dec-13 19:43N 40°05' W 074°52'0 0.0
2017-Dec-13 19:13N 40°05' W 074°52'0 0.0
2017-Dec-13 18:46N 40°05' W 074°52'0 0.0
2017-Dec-13 18:25N 40°05' W 074°52'0 0.0
2017-Dec-13 17:55N 40°05' W 074°52'0 0.0
2017-Dec-13 17:25N 40°05' W 074°52'0 0.0
2017-Dec-13 16:58N 40°05' W 074°52'0 0.0
2017-Dec-13 16:22N 40°05' W 074°52'0 0.0
2017-Dec-13 15:55N 40°05' W 074°52'0 0.0
2017-Dec-13 15:25N 40°05' W 074°52'0 0.0
2017-Dec-13 14:56N 40°05' W 074°52'0 0.0
2017-Dec-13 14:28N 40°05' W 074°52'0 0.0
2017-Dec-13 13:58N 40°05' W 074°52'0 0.0
2017-Dec-13 13:29N 40°05' W 074°52'0 0.0
2017-Dec-13 12:58N 40°05' W 074°52'0 0.0
2017-Dec-13 12:25N 40°05' W 074°52'0 0.0
2017-Dec-13 11:58N 40°05' W 074°52'0 0.0
2017-Dec-13 11:28N 40°05' W 074°52'0 0.0
2017-Dec-13 11:00N 40°05' W 074°52'0 0.0
2017-Dec-13 10:30N 40°05' W 074°52'0 0.0
2017-Dec-13 10:01N 40°05' W 074°52'0 0.0
2017-Dec-13 09:30N 40°05' W 074°52'0 0.0
2017-Dec-13 09:00N 40°05' W 074°52'0 0.0
2017-Dec-13 08:31N 40°05' W 074°52'0 0.0
2017-Dec-13 08:00N 40°05' W 074°52'0 0.0
2017-Dec-13 07:30N 40°05' W 074°52'0 0.0
2017-Dec-13 07:01N 40°05' W 074°52'0 0.0
2017-Dec-13 06:29N 40°05' W 074°52'0 0.0
2017-Dec-13 02:38N 40°05' W 074°52'0 0.1
2017-Dec-13 02:30N 40°05' W 074°52'2 4.0
2017-Dec-13 02:01N 40°04' W 074°55'3 6.0
2017-Dec-13 01:30N 40°03' W 074°58'3 6.9
2017-Dec-13 01:01N 40°01' W 075°02'3 6.7
2017-Dec-13 00:30N 39°59' W 075°05'3 6.7
2017-Dec-13 00:00N 39°56' W 075°08'3 6.5
2017-Dec-12 23:30N 39°53' W 075°09'3 6.7
2017-Dec-12 23:00N 39°52' W 075°13'4 7.1
2017-Dec-12 22:30N 39°51' W 075°17'4 7.1
2017-Dec-12 22:01N 39°50' W 075°22'3 6.9
2017-Dec-12 21:30N 39°48' W 075°25'3 6.6
2017-Dec-12 21:00N 39°46' W 075°29'4 7.3
2017-Dec-12 20:31N 39°42' W 075°31'3 6.6
2017-Dec-12 20:00N 39°40' W 075°33'3 6.3
2017-Dec-12 19:30N 39°37' W 075°35'3 6.3
2017-Dec-12 19:00N 39°34' W 075°33'5 9.2
2017-Dec-12 18:30N 39°33' W 075°39'4 8.8
2017-Dec-12 18:00N 39°32' W 075°44'4 7.7
2017-Dec-12 17:30N 39°32' W 075°49'4 7.4
2017-Dec-12 17:00N 39°31' W 075°54'5 9.0
2017-Dec-12 16:25N 39°27' W 075°59'3 7.0
2017-Dec-12 15:59N 39°25' W 076°02'5 9.0
2017-Dec-12 15:25N 39°22' W 076°07'2 4.4
2017-Dec-12 15:00N 39°21' W 076°09'4 7.8
2017-Dec-12 14:28N 39°18' W 076°13'11 5.1
2017-Dec-12 12:15N 39°10' W 076°23'2 7.1
2017-Dec-12 12:00N 39°10' W 076°25'4 7.2
2017-Dec-12 11:30N 39°12' W 076°29'4 7.1
2017-Dec-12 11:00N 39°14' W 076°32'2 3.4
2017-Dec-12 10:30N 39°15' W 076°33'0 0.0
2017-Dec-12 09:59N 39°15' W 076°33'0 0.0
2017-Dec-12 09:29N 39°15' W 076°33'0 0.0
2017-Dec-12 08:59N 39°15' W 076°33'0 0.0
2017-Dec-12 08:29N 39°15' W 076°33'0 0.0
2017-Dec-12 07:59N 39°15' W 076°33'0 0.0
2017-Dec-12 07:29N 39°15' W 076°33'0 0.0
2017-Dec-12 06:59N 39°15' W 076°33'0 0.0
2017-Dec-12 06:29N 39°15' W 076°33'0 0.0
2017-Dec-12 05:59N 39°15' W 076°33'0 0.0
2017-Dec-12 05:29N 39°15' W 076°33'0 0.0
2017-Dec-12 04:56N 39°15' W 076°33'0 0.0
2017-Dec-12 04:29N 39°15' W 076°33'0 0.0
2017-Dec-12 03:59N 39°15' W 076°33'0 0.0
2017-Dec-12 03:29N 39°15' W 076°33'0 0.0
2017-Dec-12 02:59N 39°15' W 076°33'0 0.0
2017-Dec-12 02:26N 39°15' W 076°33'0 0.3
2017-Dec-12 02:00N 39°15' W 076°33'1 1.6
2017-Dec-12 01:28N 39°15' W 076°34'0 0.0
2017-Dec-12 00:58N 39°15' W 076°34'0 0.0
2017-Dec-12 00:28N 39°15' W 076°34'0 0.0
2017-Dec-11 23:55N 39°15' W 076°34'0 0.0
2017-Dec-11 23:28N 39°15' W 076°34'0 0.0
2017-Dec-11 22:58N 39°15' W 076°34'0 0.0
2017-Dec-11 22:25N 39°15' W 076°34'0 0.0
2017-Dec-11 21:55N 39°15' W 076°34'0 0.0
2017-Dec-11 21:25N 39°15' W 076°34'0 0.0
2017-Dec-11 20:37N 39°15' W 076°34'0 0.0
2017-Dec-11 20:25N 39°15' W 076°34'0 0.0
2017-Dec-11 19:58N 39°15' W 076°34'0 0.0
2017-Dec-11 19:25N 39°15' W 076°34'0 0.0
2017-Dec-11 18:58N 39°15' W 076°34'0 0.0
2017-Dec-11 18:25N 39°15' W 076°34'0 0.0
2017-Dec-11 17:55N 39°15' W 076°34'0 0.0
2017-Dec-11 17:25N 39°15' W 076°34'0 0.0
2017-Dec-11 16:58N 39°15' W 076°34'0 0.0
2017-Dec-11 16:28N 39°15' W 076°34'0 0.0
2017-Dec-11 15:58N 39°15' W 076°34'0 0.0
2017-Dec-11 15:28N 39°15' W 076°34'0 0.0
2017-Dec-11 14:58N 39°15' W 076°34'0 0.0
2017-Dec-11 14:28N 39°15' W 076°34'0 0.0
2017-Dec-11 13:58N 39°15' W 076°34'0 0.0
2017-Dec-11 13:25N 39°15' W 076°34'0 0.0
2017-Dec-11 12:52N 39°15' W 076°34'0 0.0
2017-Dec-11 12:16N 39°15' W 076°34'0 0.0
2017-Dec-11 11:49N 39°15' W 076°34'0 0.0
2017-Dec-11 11:28N 39°15' W 076°34'0 0.0
2017-Dec-11 10:55N 39°15' W 076°34'0 0.0
2017-Dec-11 10:25N 39°15' W 076°34'0 0.0
2017-Dec-11 09:58N 39°15' W 076°34'0 0.0
2017-Dec-11 09:28N 39°15' W 076°34'0 0.0
2017-Dec-11 08:58N 39°15' W 076°34'0 0.0
2017-Dec-11 08:25N 39°15' W 076°34'0 0.0
2017-Dec-11 07:52N 39°15' W 076°34'0 0.0
2017-Dec-11 07:25N 39°15' W 076°34'0 0.0
2017-Dec-11 06:49N 39°15' W 076°34'0 0.0
2017-Dec-11 06:25N 39°15' W 076°34'0 0.0
2017-Dec-11 05:55N 39°15' W 076°34'0 0.0
2017-Dec-11 05:28N 39°15' W 076°34'0 0.0
2017-Dec-11 04:58N 39°15' W 076°34'0 0.0
2017-Dec-11 04:10N 39°15' W 076°34'0 0.0
2017-Dec-11 03:55N 39°15' W 076°34'0 0.0
2017-Dec-11 03:28N 39°15' W 076°34'1 1.9
2017-Dec-11 02:59N 39°15' W 076°33'0 0.0
2017-Dec-11 02:28N 39°15' W 076°33'0 0.0
2017-Dec-11 01:58N 39°15' W 076°33'0 0.0
2017-Dec-11 01:28N 39°15' W 076°33'0 0.0
2017-Dec-11 00:58N 39°15' W 076°33'0 0.0
2017-Dec-11 00:28N 39°15' W 076°33'0 0.0
2017-Dec-10 23:58N 39°15' W 076°33'0 0.0
2017-Dec-10 23:28N 39°15' W 076°33'0 0.0
2017-Dec-10 22:58N 39°15' W 076°33'0 0.0
2017-Dec-10 22:28N 39°15' W 076°33'0 0.0
2017-Dec-10 21:58N 39°15' W 076°33'0 0.0
2017-Dec-10 21:28N 39°15' W 076°33'0 0.0
2017-Dec-10 20:58N 39°15' W 076°33'0 0.0
2017-Dec-10 20:28N 39°15' W 076°33'0 0.0
2017-Dec-10 19:58N 39°15' W 076°33'0 0.0
2017-Dec-10 19:28N 39°15' W 076°33'0 0.0
2017-Dec-10 18:58N 39°15' W 076°33'0 0.0
2017-Dec-10 18:30N 39°15' W 076°33'0 0.1
2017-Dec-10 17:57N 39°16' W 076°33'1 1.6
2017-Dec-10 17:30N 39°15' W 076°34'0 0.2
2017-Dec-10 17:01N 39°15' W 076°34'1 1.2
2017-Dec-10 16:25N 39°15' W 076°33'0 0.1
2017-Dec-10 15:58N 39°15' W 076°33'0 0.0
2017-Dec-10 15:28N 39°15' W 076°33'0 0.0
2017-Dec-10 14:58N 39°15' W 076°33'0 0.0
2017-Dec-10 14:28N 39°15' W 076°33'0 0.0
2017-Dec-10 13:58N 39°15' W 076°33'0 0.0
2017-Dec-10 13:28N 39°15' W 076°33'0 0.0
2017-Dec-10 12:58N 39°15' W 076°33'0 0.0
2017-Dec-10 12:28N 39°15' W 076°33'0 0.0
2017-Dec-10 11:58N 39°15' W 076°33'0 0.0
2017-Dec-10 11:28N 39°15' W 076°33'0 0.0
2017-Dec-10 10:58N 39°15' W 076°33'0 0.0
2017-Dec-10 10:28N 39°15' W 076°33'0 0.0
2017-Dec-10 09:58N 39°15' W 076°33'0 0.0
2017-Dec-10 09:28N 39°15' W 076°33'0 0.0
2017-Dec-10 08:58N 39°15' W 076°33'0 0.0
2017-Dec-10 08:28N 39°15' W 076°33'0 0.0
2017-Dec-10 07:58N 39°15' W 076°33'0 0.0
2017-Dec-10 07:28N 39°15' W 076°33'0 0.0
2017-Dec-10 06:58N 39°15' W 076°33'0 0.0
2017-Dec-10 06:28N 39°15' W 076°33'0 0.0
2017-Dec-10 05:58N 39°15' W 076°33'0 0.0
2017-Dec-10 05:28N 39°15' W 076°33'0 0.0
2017-Dec-10 04:58N 39°15' W 076°33'0 0.0
2017-Dec-10 04:28N 39°15' W 076°33'0 0.0
2017-Dec-10 03:58N 39°15' W 076°33'0 0.0
2017-Dec-10 03:28N 39°15' W 076°33'0 0.0
2017-Dec-10 02:58N 39°15' W 076°33'0 0.0
2017-Dec-10 02:28N 39°15' W 076°33'0 0.0
2017-Dec-10 01:58N 39°15' W 076°33'0 0.0
2017-Dec-10 01:28N 39°15' W 076°33'0 0.0
2017-Dec-10 00:58N 39°15' W 076°33'0 0.0
2017-Dec-10 00:28N 39°15' W 076°33'0 0.0
2017-Dec-09 23:58N 39°15' W 076°33'0 0.0
2017-Dec-09 23:28N 39°15' W 076°33'0 0.0
2017-Dec-09 22:58N 39°15' W 076°33'0 0.0
2017-Dec-09 22:28N 39°15' W 076°33'0 0.0
2017-Dec-09 21:58N 39°15' W 076°33'0 0.0
2017-Dec-09 21:28N 39°15' W 076°33'0 0.0
2017-Dec-09 20:58N 39°15' W 076°33'0 0.6
2017-Dec-09 20:28N 39°15' W 076°33'0 0.5
2017-Dec-09 19:58N 39°15' W 076°33'1 1.1
2017-Dec-09 19:28N 39°15' W 076°33'0 0.0
2017-Dec-09 18:58N 39°15' W 076°33'0 0.0
2017-Dec-09 18:28N 39°15' W 076°33'0 0.0
2017-Dec-09 17:58N 39°15' W 076°33'0 0.0
2017-Dec-09 17:28N 39°15' W 076°33'0 0.0
2017-Dec-09 16:58N 39°15' W 076°33'0 0.0
2017-Dec-09 16:28N 39°15' W 076°33'0 0.0
2017-Dec-09 15:58N 39°15' W 076°33'0 0.0
2017-Dec-09 15:28N 39°15' W 076°33'0 0.0
2017-Dec-09 14:58N 39°15' W 076°33'0 0.0
2017-Dec-09 14:28N 39°15' W 076°33'0 0.0
2017-Dec-09 13:58N 39°15' W 076°33'0 0.1
2017-Dec-09 13:30N 39°15' W 076°33'0 0.2
2017-Dec-09 12:59N 39°15' W 076°33'0 0.0
2017-Dec-09 12:29N 39°16' W 076°33'0 0.1
2017-Dec-09 11:56N 39°15' W 076°33'0 0.0
2017-Dec-09 11:26N 39°15' W 076°33'0 0.0
2017-Dec-09 10:56N 39°15' W 076°33'0 0.0
2017-Dec-09 10:29N 39°15' W 076°33'0 0.0
2017-Dec-09 09:56N 39°15' W 076°33'0 0.0
2017-Dec-09 09:29N 39°15' W 076°33'0 0.0
2017-Dec-09 08:59N 39°15' W 076°33'0 0.0
2017-Dec-09 08:29N 39°15' W 076°33'0 0.0
2017-Dec-09 07:59N 39°15' W 076°33'0 0.0
2017-Dec-09 07:26N 39°15' W 076°33'0 0.0
2017-Dec-09 06:59N 39°15' W 076°33'0 0.0
2017-Dec-09 06:29N 39°15' W 076°33'0 0.0
2017-Dec-09 05:56N 39°15' W 076°33'0 0.0
2017-Dec-09 05:23N 39°15' W 076°33'0 0.0
2017-Dec-09 04:56N 39°15' W 076°33'0 0.0
2017-Dec-09 04:26N 39°15' W 076°33'0 0.0
2017-Dec-09 03:59N 39°15' W 076°33'0 0.0
2017-Dec-09 03:26N 39°15' W 076°33'0 0.0
2017-Dec-09 02:59N 39°15' W 076°33'0 0.0
2017-Dec-09 02:29N 39°15' W 076°33'0 0.0
2017-Dec-09 01:59N 39°15' W 076°33'0 0.0
2017-Dec-09 01:29N 39°15' W 076°33'0 0.0
2017-Dec-09 00:59N 39°15' W 076°33'0 0.0
2017-Dec-09 00:29N 39°15' W 076°33'0 0.0
2017-Dec-08 23:58N 39°15' W 076°33'0 0.0
2017-Dec-08 23:31N 39°15' W 076°33'0 0.5
2017-Dec-08 23:01N 39°15' W 076°33'4 8.5
2017-Dec-08 22:31N 39°12' W 076°30'4 8.6
2017-Dec-08 22:00N 39°10' W 076°25'7 8.4
2017-Dec-08 21:12N 39°03' W 076°23'2 8.5
2017-Dec-08 21:00N 39°02' W 076°23'6 8.0
2017-Dec-08 20:18N 38°56' W 076°24'4 8.0
2017-Dec-08 19:48N 38°52' W 076°25'51 7.7
2017-Dec-08 13:11N 38°01' W 076°20'2 8.6
2017-Dec-08 13:00N 38°02' W 076°22'5 8.8
2017-Dec-08 12:28N 38°04' W 076°27'47 6.6
2017-Dec-08 05:25N 38°36' W 077°11'4 6.8
2017-Dec-08 04:53N 38°40' W 077°08'3 7.7
2017-Dec-08 04:30N 38°42' W 077°05'4 6.9
2017-Dec-08 03:56N 38°45' W 077°02'3 7.9
2017-Dec-08 03:29N 38°48' W 077°02'4 7.3
2017-Dec-08 02:59N 38°52' W 077°01'0 0.9
2017-Dec-08 02:30N 38°52' W 077°00'0 0.0
2017-Dec-08 02:00N 38°52' W 077°00'0 0.0
2017-Dec-08 01:30N 38°52' W 077°00'0 0.0
2017-Dec-08 01:00N 38°52' W 077°00'0 0.0
2017-Dec-08 00:28N 38°52' W 077°00'0 0.0
2017-Dec-08 00:00N 38°52' W 077°00'0 0.0
2017-Dec-07 23:30N 38°52' W 077°00'0 0.0
2017-Dec-07 23:00N 38°52' W 077°00'0 0.0
2017-Dec-07 22:30N 38°52' W 077°00'0 0.0
2017-Dec-07 21:58N 38°52' W 077°00'0 0.0
2017-Dec-07 21:30N 38°52' W 077°00'0 0.0
2017-Dec-07 21:00N 38°52' W 077°00'0 0.0
2017-Dec-07 20:30N 38°52' W 077°00'0 0.0
2017-Dec-07 19:57N 38°52' W 077°00'0 0.0
2017-Dec-07 19:31N 38°52' W 077°00'0 0.0
2017-Dec-07 19:00N 38°52' W 077°00'0 0.0
2017-Dec-07 18:30N 38°52' W 077°00'0 0.0
2017-Dec-07 18:00N 38°52' W 077°00'0 0.0
2017-Dec-07 17:30N 38°52' W 077°00'0 0.0
2017-Dec-07 17:00N 38°52' W 077°00'0 0.0
2017-Dec-07 16:30N 38°52' W 077°00'0 0.0
2017-Dec-07 16:01N 38°52' W 077°00'0 0.0
2017-Dec-07 15:30N 38°52' W 077°00'0 0.0
2017-Dec-07 15:00N 38°52' W 077°00'0 0.0
2017-Dec-07 14:30N 38°52' W 077°00'0 0.0
2017-Dec-07 14:00N 38°52' W 077°00'0 0.0
2017-Dec-07 13:30N 38°52' W 077°00'0 0.0
2017-Dec-07 12:59N 38°52' W 077°00'0 0.0
2017-Dec-07 12:28N 38°52' W 077°00'0 0.0
2017-Dec-07 12:00N 38°52' W 077°00'0 0.0
2017-Dec-07 11:30N 38°52' W 077°00'0 0.0
2017-Dec-07 10:58N 38°52' W 077°00'0 0.0
2017-Dec-07 10:30N 38°52' W 077°00'0 0.0
2017-Dec-07 09:58N 38°52' W 077°00'0 0.0
2017-Dec-07 09:27N 38°52' W 077°00'0 0.0
2017-Dec-07 08:59N 38°52' W 077°00'0 0.0
2017-Dec-07 08:27N 38°52' W 077°00'0 0.0
2017-Dec-07 07:53N 38°52' W 077°00'0 0.0
2017-Dec-07 07:26N 38°52' W 077°00'0 0.0
2017-Dec-07 06:45N 38°52' W 077°00'0 0.0
2017-Dec-07 06:27N 38°52' W 077°00'0 0.0
2017-Dec-07 05:55N 38°52' W 077°00'0 0.0
2017-Dec-07 05:27N 38°52' W 077°00'0 0.0
2017-Dec-07 04:59N 38°52' W 077°00'0 0.0
2017-Dec-07 04:29N 38°52' W 077°00'0 0.0
2017-Dec-07 03:59N 38°52' W 077°00'0 0.0
2017-Dec-07 03:30N 38°52' W 077°00'0 0.0
2017-Dec-07 02:59N 38°52' W 077°00'0 0.0
2017-Dec-07 02:24N 38°52' W 077°00'0 0.0
2017-Dec-07 01:55N 38°52' W 077°00'0 0.0
2017-Dec-07 01:29N 38°52' W 077°00'0 0.0
2017-Dec-07 00:59N 38°52' W 077°00'0 0.0
2017-Dec-07 00:27N 38°52' W 077°00'0 0.0
2017-Dec-06 23:58N 38°52' W 077°00'0 0.0
2017-Dec-06 23:29N 38°52' W 077°00'0 0.0
2017-Dec-06 22:50N 38°52' W 077°00'0 0.5
2017-Dec-06 22:30N 38°52' W 077°00'3 5.0
2017-Dec-06 21:59N 38°50' W 077°02'3 7.1
2017-Dec-06 21:30N 38°46' W 077°02'4 7.0
2017-Dec-06 21:00N 38°43' W 077°02'  
Track history (hours):
 
Tides and Currents Weather Stations Pressure Air Temp Water Temp Dewpoint Dewpoint Depression Visibility Wind Speed Wind Dir Waves Ship Positions

Palm Coast

Owner: Dann Marine Towing, LC, Chesapeake City, MD. More information available from US FCC via Universal Licensing System and Coast Guard Vessel Documentation Center.

Last reported at 2017-Dec-15 08:00 UTC. Time now 2017-Dec-15 08:26 UTC.
Position N 39°15' W 076°34'.

; draft 3 m.

Type: Tug. MMSI: 367098270.

Date/timePositionNaut miles runAvg speedWind from/ knotsBaromVisibWave heightAir tempDewpointWater temp
2017-Dec-15 08:00N 39°15' W 076°34'0 0.0
2017-Dec-15 07:30N 39°15' W 076°34'0 0.0
2017-Dec-15 07:00N 39°15' W 076°34'0 0.0
2017-Dec-15 06:30N 39°15' W 076°34'0 0.0
2017-Dec-15 06:00N 39°15' W 076°34'0 0.0
2017-Dec-15 05:30N 39°15' W 076°34'0 0.0
2017-Dec-15 05:00N 39°15' W 076°34'0 0.0
2017-Dec-15 04:30N 39°15' W 076°34'0 0.0
2017-Dec-15 04:00N 39°15' W 076°34'0 0.0
2017-Dec-15 02:30N 39°15' W 076°34'0 0.0
2017-Dec-15 01:00N 39°15' W 076°34'0 0.0
2017-Dec-15 00:30N 39°15' W 076°34'0 0.0
2017-Dec-14 18:29N 39°15' W 076°34'0 0.0
2017-Dec-14 18:00N 39°15' W 076°34'0 0.0
2017-Dec-14 17:30N 39°15' W 076°34'0 0.0
2017-Dec-14 17:00N 39°15' W 076°34'0 0.0
2017-Dec-14 16:30N 39°15' W 076°34'0 0.0
2017-Dec-14 16:00N 39°15' W 076°34'5 5.0
2017-Dec-14 15:00N 39°12' W 076°29'4 7.1
2017-Dec-14 14:29N 39°12' W 076°25'6 8.3
2017-Dec-14 13:45N 39°15' W 076°18'3 8.7
2017-Dec-14 13:25N 39°17' W 076°15'3 8.6
2017-Dec-14 13:00N 39°19' W 076°12'4 8.3
2017-Dec-14 12:30N 39°22' W 076°08'4 8.0
2017-Dec-14 12:00N 39°24' W 076°03'4 7.7
2017-Dec-14 11:30N 39°27' W 075°60'4 7.5
2017-Dec-14 11:00N 39°29' W 075°57'4 7.1
2017-Dec-14 10:30N 39°31' W 075°53'3 6.1
2017-Dec-14 10:00N 39°32' W 075°49'3 6.2
2017-Dec-14 09:30N 39°32' W 075°45'3 6.2
2017-Dec-14 09:00N 39°33' W 075°41'3 6.0
2017-Dec-14 08:30N 39°33' W 075°37'3 6.2
2017-Dec-14 08:00N 39°34' W 075°33'4 8.7
2017-Dec-14 07:30N 39°38' W 075°34'5 9.9
2017-Dec-14 07:00N 39°42' W 075°31'510.2
2017-Dec-14 06:30N 39°47' W 075°28'5 9.9
2017-Dec-14 06:00N 39°50' W 075°22'5 9.3
2017-Dec-14 05:31N 39°51' W 075°17'4 8.9
2017-Dec-14 05:00N 39°53' W 075°11'3 6.8
2017-Dec-14 04:30N 39°55' W 075°08'3 6.7
2017-Dec-14 04:01N 39°58' W 075°07'3 6.5
2017-Dec-14 03:31N 40°00' W 075°03'3 6.7
2017-Dec-14 03:00N 40°02' W 074°60'3 6.9
2017-Dec-14 02:30N 40°04' W 074°56'3 5.6
2017-Dec-14 02:00N 40°05' W 074°52'0 0.0
2017-Dec-14 01:20N 40°05' W 074°52'0 0.0
2017-Dec-14 00:56N 40°05' W 074°52'0 0.0
2017-Dec-13 23:56N 40°05' W 074°52'0 0.0
2017-Dec-13 23:16N 40°05' W 074°52'0 0.0
2017-Dec-13 21:50N 40°05' W 074°52'0 0.0
2017-Dec-13 21:29N 40°05' W 074°52'0 0.0
2017-Dec-13 20:49N 40°05' W 074°52'0 0.0
2017-Dec-13 20:23N 40°05' W 074°52'0 0.0
2017-Dec-13 19:43N 40°05' W 074°52'0 0.0
2017-Dec-13 19:13N 40°05' W 074°52'0 0.0
2017-Dec-13 18:46N 40°05' W 074°52'0 0.0
2017-Dec-13 18:25N 40°05' W 074°52'0 0.0
2017-Dec-13 17:55N 40°05' W 074°52'0 0.0
2017-Dec-13 17:25N 40°05' W 074°52'0 0.0
2017-Dec-13 16:58N 40°05' W 074°52'0 0.0
2017-Dec-13 16:22N 40°05' W 074°52'0 0.0
2017-Dec-13 15:55N 40°05' W 074°52'0 0.0
2017-Dec-13 15:25N 40°05' W 074°52'0 0.0
2017-Dec-13 14:56N 40°05' W 074°52'0 0.0
2017-Dec-13 14:28N 40°05' W 074°52'0 0.0
2017-Dec-13 13:58N 40°05' W 074°52'0 0.0
2017-Dec-13 13:29N 40°05' W 074°52'0 0.0
2017-Dec-13 12:58N 40°05' W 074°52'0 0.0
2017-Dec-13 12:25N 40°05' W 074°52'0 0.0
2017-Dec-13 11:58N 40°05' W 074°52'0 0.0
2017-Dec-13 11:28N 40°05' W 074°52'0 0.0
2017-Dec-13 11:00N 40°05' W 074°52'0 0.0
2017-Dec-13 10:30N 40°05' W 074°52'0 0.0
2017-Dec-13 10:01N 40°05' W 074°52'0 0.0
2017-Dec-13 09:30N 40°05' W 074°52'0 0.0
2017-Dec-13 09:00N 40°05' W 074°52'0 0.0
2017-Dec-13 08:31N 40°05' W 074°52'0 0.0
2017-Dec-13 08:00N 40°05' W 074°52'0 0.0
2017-Dec-13 07:30N 40°05' W 074°52'0 0.0
2017-Dec-13 07:01N 40°05' W 074°52'0 0.0
2017-Dec-13 06:29N 40°05' W 074°52'0 0.0
2017-Dec-13 02:38N 40°05' W 074°52'0 0.1
2017-Dec-13 02:30N 40°05' W 074°52'2 4.0
2017-Dec-13 02:01N 40°04' W 074°55'3 6.0
2017-Dec-13 01:30N 40°03' W 074°58'3 6.9
2017-Dec-13 01:01N 40°01' W 075°02'3 6.7
2017-Dec-13 00:30N 39°59' W 075°05'3 6.7
2017-Dec-13 00:00N 39°56' W 075°08'3 6.5
2017-Dec-12 23:30N 39°53' W 075°09'3 6.7
2017-Dec-12 23:00N 39°52' W 075°13'4 7.1
2017-Dec-12 22:30N 39°51' W 075°17'4 7.1
2017-Dec-12 22:01N 39°50' W 075°22'3 6.9
2017-Dec-12 21:30N 39°48' W 075°25'3 6.6
2017-Dec-12 21:00N 39°46' W 075°29'4 7.3
2017-Dec-12 20:31N 39°42' W 075°31'3 6.6
2017-Dec-12 20:00N 39°40' W 075°33'3 6.3
2017-Dec-12 19:30N 39°37' W 075°35'3 6.3
2017-Dec-12 19:00N 39°34' W 075°33'5 9.2
2017-Dec-12 18:30N 39°33' W 075°39'4 8.8
2017-Dec-12 18:00N 39°32' W 075°44'4 7.7
2017-Dec-12 17:30N 39°32' W 075°49'4 7.4
2017-Dec-12 17:00N 39°31' W 075°54'5 9.0
2017-Dec-12 16:25N 39°27' W 075°59'3 7.0
2017-Dec-12 15:59N 39°25' W 076°02'5 9.0
2017-Dec-12 15:25N 39°22' W 076°07'2 4.4
2017-Dec-12 15:00N 39°21' W 076°09'4 7.8
2017-Dec-12 14:28N 39°18' W 076°13'11 5.1
2017-Dec-12 12:15N 39°10' W 076°23'2 7.1
2017-Dec-12 12:00N 39°10' W 076°25'4 7.2
2017-Dec-12 11:30N 39°12' W 076°29'4 7.1
2017-Dec-12 11:00N 39°14' W 076°32'2 3.4
2017-Dec-12 10:30N 39°15' W 076°33'0 0.0
2017-Dec-12 09:59N 39°15' W 076°33'0 0.0
2017-Dec-12 09:29N 39°15' W 076°33'0 0.0
2017-Dec-12 08:59N 39°15' W 076°33'0 0.0
2017-Dec-12 08:29N 39°15' W 076°33'0 0.0
2017-Dec-12 07:59N 39°15' W 076°33'0 0.0
2017-Dec-12 07:29N 39°15' W 076°33'0 0.0
2017-Dec-12 06:59N 39°15' W 076°33'0 0.0
2017-Dec-12 06:29N 39°15' W 076°33'0 0.0
2017-Dec-12 05:59N 39°15' W 076°33'0 0.0
2017-Dec-12 05:29N 39°15' W 076°33'0 0.0
2017-Dec-12 04:56N 39°15' W 076°33'0 0.0
2017-Dec-12 04:29N 39°15' W 076°33'0 0.0
2017-Dec-12 03:59N 39°15' W 076°33'0 0.0
2017-Dec-12 03:29N 39°15' W 076°33'0 0.0
2017-Dec-12 02:59N 39°15' W 076°33'0 0.0
2017-Dec-12 02:26N 39°15' W 076°33'0 0.3
2017-Dec-12 02:00N 39°15' W 076°33'1 1.6
2017-Dec-12 01:28N 39°15' W 076°34'0 0.0
2017-Dec-12 00:58N 39°15' W 076°34'0 0.0
2017-Dec-12 00:28N 39°15' W 076°34'0 0.0
2017-Dec-11 23:55N 39°15' W 076°34'0 0.0
2017-Dec-11 23:28N 39°15' W 076°34'0 0.0
2017-Dec-11 22:58N 39°15' W 076°34'0 0.0
2017-Dec-11 22:25N 39°15' W 076°34'0 0.0
2017-Dec-11 21:55N 39°15' W 076°34'0 0.0
2017-Dec-11 21:25N 39°15' W 076°34'0 0.0
2017-Dec-11 20:37N 39°15' W 076°34'0 0.0
2017-Dec-11 20:25N 39°15' W 076°34'0 0.0
2017-Dec-11 19:58N 39°15' W 076°34'0 0.0
2017-Dec-11 19:25N 39°15' W 076°34'0 0.0
2017-Dec-11 18:58N 39°15' W 076°34'0 0.0
2017-Dec-11 18:25N 39°15' W 076°34'0 0.0
2017-Dec-11 17:55N 39°15' W 076°34'0 0.0
2017-Dec-11 17:25N 39°15' W 076°34'0 0.0
2017-Dec-11 16:58N 39°15' W 076°34'0 0.0
2017-Dec-11 16:28N 39°15' W 076°34'0 0.0
2017-Dec-11 15:58N 39°15' W 076°34'0 0.0
2017-Dec-11 15:28N 39°15' W 076°34'0 0.0
2017-Dec-11 14:58N 39°15' W 076°34'0 0.0
2017-Dec-11 14:28N 39°15' W 076°34'0 0.0
2017-Dec-11 13:58N 39°15' W 076°34'0 0.0
2017-Dec-11 13:25N 39°15' W 076°34'0 0.0
2017-Dec-11 12:52N 39°15' W 076°34'0 0.0
2017-Dec-11 12:16N 39°15' W 076°34'0 0.0
2017-Dec-11 11:49N 39°15' W 076°34'0 0.0
2017-Dec-11 11:28N 39°15' W 076°34'0 0.0
2017-Dec-11 10:55N 39°15' W 076°34'0 0.0
2017-Dec-11 10:25N 39°15' W 076°34'0 0.0
2017-Dec-11 09:58N 39°15' W 076°34'0 0.0
2017-Dec-11 09:28N 39°15' W 076°34'0 0.0
2017-Dec-11 08:58N 39°15' W 076°34'0 0.0
2017-Dec-11 08:25N 39°15' W 076°34'0 0.0
2017-Dec-11 07:52N 39°15' W 076°34'0 0.0
2017-Dec-11 07:25N 39°15' W 076°34'0 0.0
2017-Dec-11 06:49N 39°15' W 076°34'0 0.0
2017-Dec-11 06:25N 39°15' W 076°34'0 0.0
2017-Dec-11 05:55N 39°15' W 076°34'0 0.0
2017-Dec-11 05:28N 39°15' W 076°34'0 0.0
2017-Dec-11 04:58N 39°15' W 076°34'0 0.0
2017-Dec-11 04:10N 39°15' W 076°34'0 0.0
2017-Dec-11 03:55N 39°15' W 076°34'0 0.0
2017-Dec-11 03:28N 39°15' W 076°34'1 1.9
2017-Dec-11 02:59N 39°15' W 076°33'0 0.0
2017-Dec-11 02:28N 39°15' W 076°33'0 0.0
2017-Dec-11 01:58N 39°15' W 076°33'0 0.0
2017-Dec-11 01:28N 39°15' W 076°33'0 0.0
2017-Dec-11 00:58N 39°15' W 076°33'0 0.0
2017-Dec-11 00:28N 39°15' W 076°33'0 0.0
2017-Dec-10 23:58N 39°15' W 076°33'0 0.0
2017-Dec-10 23:28N 39°15' W 076°33'0 0.0
2017-Dec-10 22:58N 39°15' W 076°33'0 0.0
2017-Dec-10 22:28N 39°15' W 076°33'0 0.0
2017-Dec-10 21:58N 39°15' W 076°33'0 0.0
2017-Dec-10 21:28N 39°15' W 076°33'0 0.0
2017-Dec-10 20:58N 39°15' W 076°33'0 0.0
2017-Dec-10 20:28N 39°15' W 076°33'0 0.0
2017-Dec-10 19:58N 39°15' W 076°33'0 0.0
2017-Dec-10 19:28N 39°15' W 076°33'0 0.0
2017-Dec-10 18:58N 39°15' W 076°33'0 0.0
2017-Dec-10 18:30N 39°15' W 076°33'0 0.1
2017-Dec-10 17:57N 39°16' W 076°33'1 1.6
2017-Dec-10 17:30N 39°15' W 076°34'0 0.2
2017-Dec-10 17:01N 39°15' W 076°34'1 1.2
2017-Dec-10 16:25N 39°15' W 076°33'0 0.1
2017-Dec-10 15:58N 39°15' W 076°33'0 0.0
2017-Dec-10 15:28N 39°15' W 076°33'0 0.0
2017-Dec-10 14:58N 39°15' W 076°33'0 0.0
2017-Dec-10 14:28N 39°15' W 076°33'0 0.0
2017-Dec-10 13:58N 39°15' W 076°33'0 0.0
2017-Dec-10 13:28N 39°15' W 076°33'0 0.0
2017-Dec-10 12:58N 39°15' W 076°33'0 0.0
2017-Dec-10 12:28N 39°15' W 076°33'0 0.0
2017-Dec-10 11:58N 39°15' W 076°33'0 0.0
2017-Dec-10 11:28N 39°15' W 076°33'0 0.0
2017-Dec-10 10:58N 39°15' W 076°33'0 0.0
2017-Dec-10 10:28N 39°15' W 076°33'0 0.0
2017-Dec-10 09:58N 39°15' W 076°33'0 0.0
2017-Dec-10 09:28N 39°15' W 076°33'0 0.0
2017-Dec-10 08:58N 39°15' W 076°33'0 0.0
2017-Dec-10 08:28N 39°15' W 076°33'0 0.0
2017-Dec-10 07:58N 39°15' W 076°33'0 0.0
2017-Dec-10 07:28N 39°15' W 076°33'0 0.0
2017-Dec-10 06:58N 39°15' W 076°33'0 0.0
2017-Dec-10 06:28N 39°15' W 076°33'0 0.0
2017-Dec-10 05:58N 39°15' W 076°33'0 0.0
2017-Dec-10 05:28N 39°15' W 076°33'0 0.0
2017-Dec-10 04:58N 39°15' W 076°33'0 0.0
2017-Dec-10 04:28N 39°15' W 076°33'0 0.0
2017-Dec-10 03:58N 39°15' W 076°33'0 0.0
2017-Dec-10 03:28N 39°15' W 076°33'0 0.0
2017-Dec-10 02:58N 39°15' W 076°33'0 0.0
2017-Dec-10 02:28N 39°15' W 076°33'0 0.0
2017-Dec-10 01:58N 39°15' W 076°33'0 0.0
2017-Dec-10 01:28N 39°15' W 076°33'0 0.0
2017-Dec-10 00:58N 39°15' W 076°33'0 0.0
2017-Dec-10 00:28N 39°15' W 076°33'0 0.0
2017-Dec-09 23:58N 39°15' W 076°33'0 0.0
2017-Dec-09 23:28N 39°15' W 076°33'0 0.0
2017-Dec-09 22:58N 39°15' W 076°33'0 0.0
2017-Dec-09 22:28N 39°15' W 076°33'0 0.0
2017-Dec-09 21:58N 39°15' W 076°33'0 0.0
2017-Dec-09 21:28N 39°15' W 076°33'0 0.0
2017-Dec-09 20:58N 39°15' W 076°33'0 0.6
2017-Dec-09 20:28N 39°15' W 076°33'0 0.5
2017-Dec-09 19:58N 39°15' W 076°33'1 1.1
2017-Dec-09 19:28N 39°15' W 076°33'0 0.0
2017-Dec-09 18:58N 39°15' W 076°33'0 0.0
2017-Dec-09 18:28N 39°15' W 076°33'0 0.0
2017-Dec-09 17:58N 39°15' W 076°33'0 0.0
2017-Dec-09 17:28N 39°15' W 076°33'0 0.0
2017-Dec-09 16:58N 39°15' W 076°33'0 0.0
2017-Dec-09 16:28N 39°15' W 076°33'0 0.0
2017-Dec-09 15:58N 39°15' W 076°33'0 0.0
2017-Dec-09 15:28N 39°15' W 076°33'0 0.0
2017-Dec-09 14:58N 39°15' W 076°33'0 0.0
2017-Dec-09 14:28N 39°15' W 076°33'0 0.0
2017-Dec-09 13:58N 39°15' W 076°33'0 0.1
2017-Dec-09 13:30N 39°15' W 076°33'0 0.2
2017-Dec-09 12:59N 39°15' W 076°33'0 0.0
2017-Dec-09 12:29N 39°16' W 076°33'0 0.1
2017-Dec-09 11:56N 39°15' W 076°33'0 0.0
2017-Dec-09 11:26N 39°15' W 076°33'0 0.0
2017-Dec-09 10:56N 39°15' W 076°33'0 0.0
2017-Dec-09 10:29N 39°15' W 076°33'0 0.0
2017-Dec-09 09:56N 39°15' W 076°33'0 0.0
2017-Dec-09 09:29N 39°15' W 076°33'0 0.0
2017-Dec-09 08:59N 39°15' W 076°33'0 0.0
2017-Dec-09 08:29N 39°15' W 076°33'0 0.0
2017-Dec-09 07:59N 39°15' W 076°33'0 0.0
2017-Dec-09 07:26N 39°15' W 076°33'0 0.0
2017-Dec-09 06:59N 39°15' W 076°33'0 0.0
2017-Dec-09 06:29N 39°15' W 076°33'0 0.0
2017-Dec-09 05:56N 39°15' W 076°33'0 0.0
2017-Dec-09 05:23N 39°15' W 076°33'0 0.0
2017-Dec-09 04:56N 39°15' W 076°33'0 0.0
2017-Dec-09 04:26N 39°15' W 076°33'0 0.0
2017-Dec-09 03:59N 39°15' W 076°33'0 0.0
2017-Dec-09 03:26N 39°15' W 076°33'0 0.0
2017-Dec-09 02:59N 39°15' W 076°33'0 0.0
2017-Dec-09 02:29N 39°15' W 076°33'0 0.0
2017-Dec-09 01:59N 39°15' W 076°33'0 0.0
2017-Dec-09 01:29N 39°15' W 076°33'0 0.0
2017-Dec-09 00:59N 39°15' W 076°33'0 0.0
2017-Dec-09 00:29N 39°15' W 076°33'0 0.0
2017-Dec-08 23:58N 39°15' W 076°33'0 0.0
2017-Dec-08 23:31N 39°15' W 076°33'0 0.5
2017-Dec-08 23:01N 39°15' W 076°33'4 8.5
2017-Dec-08 22:31N 39°12' W 076°30'4 8.6
2017-Dec-08 22:00N 39°10' W 076°25'7 8.4
2017-Dec-08 21:12N 39°03' W 076°23'2 8.5
2017-Dec-08 21:00N 39°02' W 076°23'6 8.0
2017-Dec-08 20:18N 38°56' W 076°24'4 8.0
2017-Dec-08 19:48N 38°52' W 076°25'51 7.7
2017-Dec-08 13:11N 38°01' W 076°20'2 8.6
2017-Dec-08 13:00N 38°02' W 076°22'5 8.8
2017-Dec-08 12:28N 38°04' W 076°27'47 6.6
2017-Dec-08 05:25N 38°36' W 077°11'4 6.8
2017-Dec-08 04:53N 38°40' W 077°08'3 7.7
2017-Dec-08 04:30N 38°42' W 077°05'4 6.9
2017-Dec-08 03:56N 38°45' W 077°02'3 7.9
2017-Dec-08 03:29N 38°48' W 077°02'4 7.3
2017-Dec-08 02:59N 38°52' W 077°01'0 0.9
2017-Dec-08 02:30N 38°52' W 077°00'0 0.0
2017-Dec-08 02:00N 38°52' W 077°00'0 0.0
2017-Dec-08 01:30N 38°52' W 077°00'0 0.0
2017-Dec-08 01:00N 38°52' W 077°00'0 0.0
2017-Dec-08 00:28N 38°52' W 077°00'0 0.0
2017-Dec-08 00:00N 38°52' W 077°00'0 0.0
2017-Dec-07 23:30N 38°52' W 077°00'0 0.0
2017-Dec-07 23:00N 38°52' W 077°00'0 0.0
2017-Dec-07 22:30N 38°52' W 077°00'0 0.0
2017-Dec-07 21:58N 38°52' W 077°00'0 0.0
2017-Dec-07 21:30N 38°52' W 077°00'0 0.0
2017-Dec-07 21:00N 38°52' W 077°00'0 0.0
2017-Dec-07 20:30N 38°52' W 077°00'0 0.0
2017-Dec-07 19:57N 38°52' W 077°00'0 0.0
2017-Dec-07 19:31N 38°52' W 077°00'0 0.0
2017-Dec-07 19:00N 38°52' W 077°00'0 0.0
2017-Dec-07 18:30N 38°52' W 077°00'0 0.0
2017-Dec-07 18:00N 38°52' W 077°00'0 0.0
2017-Dec-07 17:30N 38°52' W 077°00'0 0.0
2017-Dec-07 17:00N 38°52' W 077°00'0 0.0
2017-Dec-07 16:30N 38°52' W 077°00'0 0.0
2017-Dec-07 16:01N 38°52' W 077°00'0 0.0
2017-Dec-07 15:30N 38°52' W 077°00'0 0.0
2017-Dec-07 15:00N 38°52' W 077°00'0 0.0
2017-Dec-07 14:30N 38°52' W 077°00'0 0.0
2017-Dec-07 14:00N 38°52' W 077°00'0 0.0
2017-Dec-07 13:30N 38°52' W 077°00'0 0.0
2017-Dec-07 12:59N 38°52' W 077°00'0 0.0
2017-Dec-07 12:28N 38°52' W 077°00'0 0.0
2017-Dec-07 12:00N 38°52' W 077°00'0 0.0
2017-Dec-07 11:30N 38°52' W 077°00'0 0.0
2017-Dec-07 10:58N 38°52' W 077°00'0 0.0
2017-Dec-07 10:30N 38°52' W 077°00'0 0.0
2017-Dec-07 09:58N 38°52' W 077°00'0 0.0
2017-Dec-07 09:27N 38°52' W 077°00'0 0.0
2017-Dec-07 08:59N 38°52' W 077°00'0 0.0
2017-Dec-07 08:27N 38°52' W 077°00'0 0.0
2017-Dec-07 07:53N 38°52' W 077°00'0 0.0
2017-Dec-07 07:26N 38°52' W 077°00'0 0.0
2017-Dec-07 06:45N 38°52' W 077°00'0 0.0
2017-Dec-07 06:27N 38°52' W 077°00'0 0.0
2017-Dec-07 05:55N 38°52' W 077°00'0 0.0
2017-Dec-07 05:27N 38°52' W 077°00'0 0.0
2017-Dec-07 04:59N 38°52' W 077°00'0 0.0
2017-Dec-07 04:29N 38°52' W 077°00'0 0.0
2017-Dec-07 03:59N 38°52' W 077°00'0 0.0
2017-Dec-07 03:30N 38°52' W 077°00'0 0.0
2017-Dec-07 02:59N 38°52' W 077°00'0 0.0
2017-Dec-07 02:24N 38°52' W 077°00'0 0.0
2017-Dec-07 01:55N 38°52' W 077°00'0 0.0
2017-Dec-07 01:29N 38°52' W 077°00'0 0.0
2017-Dec-07 00:59N 38°52' W 077°00'0 0.0
2017-Dec-07 00:27N 38°52' W 077°00'0 0.0
2017-Dec-06 23:58N 38°52' W 077°00'0 0.0
2017-Dec-06 23:29N 38°52' W 077°00'0 0.0
2017-Dec-06 22:50N 38°52' W 077°00'0 0.5
2017-Dec-06 22:30N 38°52' W 077°00'3 5.0
2017-Dec-06 21:59N 38°50' W 077°02'3 7.1
2017-Dec-06 21:30N 38°46' W 077°02'4 7.0
2017-Dec-06 21:00N 38°43' W 077°02'  

Dump ship's entire track history